sensor_id;sensor_type;location;lat;lon;timestamp;P1;durP1;ratioP1;P2;durP2;ratioP2
7239;SDS011;3661;53.288;10.458;2024-03-22T00:01:24;415.13;;;403.80;;
7239;SDS011;3661;53.288;10.458;2024-03-22T00:03:56;468.88;;;455.35;;
7239;SDS011;3661;53.288;10.458;2024-03-22T00:06:27;499.97;;;485.60;;
7239;SDS011;3661;53.288;10.458;2024-03-22T00:08:59;450.15;;;437.77;;
7239;SDS011;3661;53.288;10.458;2024-03-22T00:11:31;397.65;;;386.85;;
7239;SDS011;3661;53.288;10.458;2024-03-22T00:14:03;398.73;;;387.53;;
7239;SDS011;3661;53.288;10.458;2024-03-22T00:16:36;476.35;;;462.58;;
7239;SDS011;3661;53.288;10.458;2024-03-22T00:19:08;483.40;;;469.45;;
7239;SDS011;3661;53.288;10.458;2024-03-22T00:21:39;443.08;;;430.63;;
7239;SDS011;3661;53.288;10.458;2024-03-22T00:24:11;422.00;;;410.20;;
7239;SDS011;3661;53.288;10.458;2024-03-22T00:26:42;451.90;;;439.15;;
7239;SDS011;3661;53.288;10.458;2024-03-22T00:29:14;503.33;;;488.92;;
7239;SDS011;3661;53.288;10.458;2024-03-22T00:31:46;515.47;;;500.55;;
7239;SDS011;3661;53.288;10.458;2024-03-22T00:34:19;520.00;;;504.95;;
7239;SDS011;3661;53.288;10.458;2024-03-22T00:36:50;522.42;;;507.25;;
7239;SDS011;3661;53.288;10.458;2024-03-22T00:39:22;516.63;;;501.45;;
7239;SDS011;3661;53.288;10.458;2024-03-22T00:41:53;542.45;;;526.47;;
7239;SDS011;3661;53.288;10.458;2024-03-22T00:44:25;519.33;;;504.40;;
7239;SDS011;3661;53.288;10.458;2024-03-22T00:46:58;544.53;;;528.47;;
7239;SDS011;3661;53.288;10.458;2024-03-22T00:49:32;491.98;;;478.05;;
7239;SDS011;3661;53.288;10.458;2024-03-22T00:52:03;457.70;;;444.77;;
7239;SDS011;3661;53.288;10.458;2024-03-22T00:54:35;531.67;;;516.22;;
7239;SDS011;3661;53.288;10.458;2024-03-22T00:57:09;495.48;;;481.08;;
7239;SDS011;3661;53.288;10.458;2024-03-22T00:59:41;507.97;;;493.23;;
7239;SDS011;3661;53.288;10.458;2024-03-22T01:02:13;497.65;;;483.63;;
7239;SDS011;3661;53.288;10.458;2024-03-22T01:04:46;532.88;;;517.25;;
7239;SDS011;3661;53.288;10.458;2024-03-22T01:07:17;533.70;;;518.13;;
7239;SDS011;3661;53.288;10.458;2024-03-22T01:09:49;528.97;;;513.65;;
7239;SDS011;3661;53.288;10.458;2024-03-22T01:12:21;498.08;;;483.77;;
7239;SDS011;3661;53.288;10.458;2024-03-22T01:14:53;534.80;;;519.33;;
7239;SDS011;3661;53.288;10.458;2024-03-22T01:17:26;486.05;;;472.15;;
7239;SDS011;3661;53.288;10.458;2024-03-22T01:20:00;510.38;;;495.55;;
7239;SDS011;3661;53.288;10.458;2024-03-22T01:22:31;545.78;;;529.60;;
7239;SDS011;3661;53.288;10.458;2024-03-22T01:25:05;555.20;;;539.07;;
7239;SDS011;3661;53.288;10.458;2024-03-22T01:27:37;517.67;;;502.85;;
7239;SDS011;3661;53.288;10.458;2024-03-22T01:30:09;523.78;;;508.25;;
7239;SDS011;3661;53.288;10.458;2024-03-22T01:32:43;493.37;;;479.13;;
7239;SDS011;3661;53.288;10.458;2024-03-22T01:35:15;525.97;;;510.70;;
7239;SDS011;3661;53.288;10.458;2024-03-22T01:37:46;554.38;;;538.15;;
7239;SDS011;3661;53.288;10.458;2024-03-22T01:40:18;527.77;;;512.47;;
7239;SDS011;3661;53.288;10.458;2024-03-22T01:42:52;533.17;;;517.78;;
7239;SDS011;3661;53.288;10.458;2024-03-22T01:45:27;476.52;;;463.00;;
7239;SDS011;3661;53.288;10.458;2024-03-22T01:48:03;482.80;;;469.20;;
7239;SDS011;3661;53.288;10.458;2024-03-22T01:50:35;491.77;;;477.50;;
7239;SDS011;3661;53.288;10.458;2024-03-22T01:53:07;491.98;;;477.83;;
7239;SDS011;3661;53.288;10.458;2024-03-22T01:55:42;557.10;;;540.88;;
7239;SDS011;3661;53.288;10.458;2024-03-22T01:58:13;439.87;;;427.47;;
7239;SDS011;3661;53.288;10.458;2024-03-22T02:00:46;528.67;;;513.58;;
7239;SDS011;3661;53.288;10.458;2024-03-22T02:03:19;436.45;;;423.63;;
7239;SDS011;3661;53.288;10.458;2024-03-22T02:05:51;480.50;;;466.77;;
7239;SDS011;3661;53.288;10.458;2024-03-22T02:08:22;496.67;;;482.45;;
7239;SDS011;3661;53.288;10.458;2024-03-22T02:10:54;479.58;;;466.10;;
7239;SDS011;3661;53.288;10.458;2024-03-22T02:13:26;520.10;;;504.92;;
7239;SDS011;3661;53.288;10.458;2024-03-22T02:15:58;532.72;;;517.17;;
7239;SDS011;3661;53.288;10.458;2024-03-22T02:18:31;546.57;;;530.67;;
7239;SDS011;3661;53.288;10.458;2024-03-22T02:21:03;475.13;;;461.60;;
7239;SDS011;3661;53.288;10.458;2024-03-22T02:23:36;536.38;;;520.53;;
7239;SDS011;3661;53.288;10.458;2024-03-22T02:26:09;502.58;;;487.95;;
7239;SDS011;3661;53.288;10.458;2024-03-22T02:28:40;521.95;;;506.90;;
7239;SDS011;3661;53.288;10.458;2024-03-22T02:31:12;538.05;;;522.42;;
7239;SDS011;3661;53.288;10.458;2024-03-22T02:33:44;517.17;;;502.25;;
7239;SDS011;3661;53.288;10.458;2024-03-22T02:36:17;555.13;;;538.75;;
7239;SDS011;3661;53.288;10.458;2024-03-22T02:38:49;516.72;;;501.92;;
7239;SDS011;3661;53.288;10.458;2024-03-22T02:41:21;492.10;;;478.13;;
7239;SDS011;3661;53.288;10.458;2024-03-22T02:43:53;503.38;;;488.88;;
7239;SDS011;3661;53.288;10.458;2024-03-22T02:46:25;498.05;;;483.10;;
7239;SDS011;3661;53.288;10.458;2024-03-22T02:48:57;497.33;;;482.95;;
7239;SDS011;3661;53.288;10.458;2024-03-22T02:51:30;508.52;;;493.80;;
7239;SDS011;3661;53.288;10.458;2024-03-22T02:54:02;565.22;;;548.72;;
7239;SDS011;3661;53.288;10.458;2024-03-22T02:56:35;478.70;;;465.10;;
7239;SDS011;3661;53.288;10.458;2024-03-22T02:59:06;533.95;;;518.60;;
7239;SDS011;3661;53.288;10.458;2024-03-22T03:01:39;581.33;;;564.05;;
7239;SDS011;3661;53.288;10.458;2024-03-22T03:04:10;538.77;;;523.07;;
7239;SDS011;3661;53.288;10.458;2024-03-22T03:06:42;545.60;;;529.65;;
7239;SDS011;3661;53.288;10.458;2024-03-22T03:09:14;571.45;;;554.42;;
7239;SDS011;3661;53.288;10.458;2024-03-22T03:11:46;580.80;;;563.50;;
7239;SDS011;3661;53.288;10.458;2024-03-22T03:14:17;548.90;;;532.70;;
7239;SDS011;3661;53.288;10.458;2024-03-22T03:16:50;559.13;;;542.72;;
7239;SDS011;3661;53.288;10.458;2024-03-22T03:19:22;598.83;;;581.03;;
7239;SDS011;3661;53.288;10.458;2024-03-22T03:21:55;607.15;;;589.00;;
7239;SDS011;3661;53.288;10.458;2024-03-22T03:24:28;605.20;;;586.95;;
7239;SDS011;3661;53.288;10.458;2024-03-22T03:27:00;556.93;;;540.43;;
7239;SDS011;3661;53.288;10.458;2024-03-22T03:29:31;587.80;;;570.45;;
7239;SDS011;3661;53.288;10.458;2024-03-22T03:32:03;552.40;;;536.30;;
7239;SDS011;3661;53.288;10.458;2024-03-22T03:34:35;557.75;;;541.03;;
7239;SDS011;3661;53.288;10.458;2024-03-22T03:37:07;584.75;;;567.40;;
7239;SDS011;3661;53.288;10.458;2024-03-22T03:39:40;563.67;;;547.05;;
7239;SDS011;3661;53.288;10.458;2024-03-22T03:42:12;557.95;;;541.45;;
7239;SDS011;3661;53.288;10.458;2024-03-22T03:44:43;574.35;;;557.10;;
7239;SDS011;3661;53.288;10.458;2024-03-22T03:47:16;583.08;;;565.72;;
7239;SDS011;3661;53.288;10.458;2024-03-22T03:49:47;591.03;;;573.22;;
7239;SDS011;3661;53.288;10.458;2024-03-22T03:52:20;644.70;;;625.00;;
7239;SDS011;3661;53.288;10.458;2024-03-22T03:54:52;555.70;;;539.28;;
7239;SDS011;3661;53.288;10.458;2024-03-22T03:57:25;582.13;;;564.65;;
7239;SDS011;3661;53.288;10.458;2024-03-22T03:59:56;582.83;;;565.47;;
7239;SDS011;3661;53.288;10.458;2024-03-22T04:02:28;586.78;;;569.13;;
7239;SDS011;3661;53.288;10.458;2024-03-22T04:05:00;573.50;;;556.58;;
7239;SDS011;3661;53.288;10.458;2024-03-22T04:07:32;537.00;;;520.97;;
7239;SDS011;3661;53.288;10.458;2024-03-22T04:10:05;554.65;;;538.13;;
7239;SDS011;3661;53.288;10.458;2024-03-22T04:12:37;589.50;;;572.20;;
7239;SDS011;3661;53.288;10.458;2024-03-22T04:15:09;546.70;;;530.60;;
7239;SDS011;3661;53.288;10.458;2024-03-22T04:17:41;571.97;;;555.03;;
7239;SDS011;3661;53.288;10.458;2024-03-22T04:20:12;632.13;;;612.85;;
7239;SDS011;3661;53.288;10.458;2024-03-22T04:22:46;575.30;;;558.03;;
7239;SDS011;3661;53.288;10.458;2024-03-22T04:25:21;578.70;;;561.58;;
7239;SDS011;3661;53.288;10.458;2024-03-22T04:27:53;593.78;;;575.92;;
7239;SDS011;3661;53.288;10.458;2024-03-22T04:30:24;559.17;;;542.53;;
7239;SDS011;3661;53.288;10.458;2024-03-22T04:32:56;592.47;;;574.33;;
7239;SDS011;3661;53.288;10.458;2024-03-22T04:35:27;624.95;;;606.00;;
7239;SDS011;3661;53.288;10.458;2024-03-22T04:37:59;576.13;;;558.72;;
7239;SDS011;3661;53.288;10.458;2024-03-22T04:40:34;557.55;;;540.97;;
7239;SDS011;3661;53.288;10.458;2024-03-22T04:43:07;460.48;;;447.05;;
7239;SDS011;3661;53.288;10.458;2024-03-22T04:45:40;428.20;;;416.10;;
7239;SDS011;3661;53.288;10.458;2024-03-22T04:48:12;476.47;;;462.43;;
7239;SDS011;3661;53.288;10.458;2024-03-22T04:50:45;404.57;;;392.87;;
7239;SDS011;3661;53.288;10.458;2024-03-22T04:53:18;445.80;;;433.10;;
7239;SDS011;3661;53.288;10.458;2024-03-22T04:55:55;453.00;;;439.83;;
7239;SDS011;3661;53.288;10.458;2024-03-22T04:58:27;460.98;;;447.58;;
7239;SDS011;3661;53.288;10.458;2024-03-22T05:00:59;451.50;;;438.38;;
7239;SDS011;3661;53.288;10.458;2024-03-22T05:03:31;471.90;;;458.30;;
7239;SDS011;3661;53.288;10.458;2024-03-22T05:06:03;517.17;;;501.95;;
7239;SDS011;3661;53.288;10.458;2024-03-22T05:08:36;524.35;;;508.83;;
7239;SDS011;3661;53.288;10.458;2024-03-22T05:11:10;460.83;;;447.30;;
7239;SDS011;3661;53.288;10.458;2024-03-22T05:13:41;435.95;;;423.17;;
7239;SDS011;3661;53.288;10.458;2024-03-22T05:16:13;457.83;;;444.50;;
7239;SDS011;3661;53.288;10.458;2024-03-22T05:18:44;476.10;;;461.95;;
7239;SDS011;3661;53.288;10.458;2024-03-22T05:21:17;471.02;;;457.20;;
7239;SDS011;3661;53.288;10.458;2024-03-22T05:23:48;428.95;;;416.63;;
7239;SDS011;3661;53.288;10.458;2024-03-22T05:26:22;469.67;;;455.83;;
7239;SDS011;3661;53.288;10.458;2024-03-22T05:28:55;498.05;;;483.25;;
7239;SDS011;3661;53.288;10.458;2024-03-22T05:31:27;520.63;;;505.13;;
7239;SDS011;3661;53.288;10.458;2024-03-22T05:33:58;530.28;;;514.47;;
7239;SDS011;3661;53.288;10.458;2024-03-22T05:36:31;491.80;;;477.15;;
7239;SDS011;3661;53.288;10.458;2024-03-22T05:39:03;542.83;;;526.17;;
7239;SDS011;3661;53.288;10.458;2024-03-22T05:41:37;506.83;;;491.80;;
7239;SDS011;3661;53.288;10.458;2024-03-22T05:44:08;506.50;;;491.27;;
7239;SDS011;3661;53.288;10.458;2024-03-22T05:46:40;491.90;;;477.05;;
7239;SDS011;3661;53.288;10.458;2024-03-22T05:49:12;464.20;;;450.15;;
7239;SDS011;3661;53.288;10.458;2024-03-22T05:51:44;469.00;;;455.17;;
7239;SDS011;3661;53.288;10.458;2024-03-22T05:54:15;516.88;;;501.33;;
7239;SDS011;3661;53.288;10.458;2024-03-22T05:56:49;506.05;;;491.02;;
7239;SDS011;3661;53.288;10.458;2024-03-22T05:59:20;500.20;;;485.27;;
7239;SDS011;3661;53.288;10.458;2024-03-22T06:01:53;538.85;;;522.80;;
7239;SDS011;3661;53.288;10.458;2024-03-22T06:04:24;450.63;;;437.17;;
7239;SDS011;3661;53.288;10.458;2024-03-22T06:06:56;541.75;;;525.58;;
7239;SDS011;3661;53.288;10.458;2024-03-22T06:09:29;530.00;;;514.30;;
7239;SDS011;3661;53.288;10.458;2024-03-22T06:12:17;506.92;;;491.73;;
7239;SDS011;3661;53.288;10.458;2024-03-22T06:14:48;536.50;;;520.28;;
7239;SDS011;3661;53.288;10.458;2024-03-22T06:17:21;483.67;;;468.90;;
7239;SDS011;3661;53.288;10.458;2024-03-22T06:19:52;513.50;;;497.77;;
7239;SDS011;3661;53.288;10.458;2024-03-22T06:22:25;565.72;;;548.33;;
7239;SDS011;3661;53.288;10.458;2024-03-22T06:24:56;538.72;;;522.33;;
7239;SDS011;3661;53.288;10.458;2024-03-22T06:27:30;538.88;;;522.53;;
7239;SDS011;3661;53.288;10.458;2024-03-22T06:30:02;571.13;;;553.55;;
7239;SDS011;3661;53.288;10.458;2024-03-22T06:32:34;625.72;;;606.08;;
7239;SDS011;3661;53.288;10.458;2024-03-22T06:35:07;560.13;;;543.20;;
7239;SDS011;3661;53.288;10.458;2024-03-22T06:37:41;547.13;;;530.65;;
7239;SDS011;3661;53.288;10.458;2024-03-22T06:40:12;571.72;;;554.20;;
7239;SDS011;3661;53.288;10.458;2024-03-22T06:42:46;561.05;;;543.75;;
7239;SDS011;3661;53.288;10.458;2024-03-22T06:45:17;575.95;;;558.22;;
7239;SDS011;3661;53.288;10.458;2024-03-22T06:47:49;562.90;;;545.75;;
7239;SDS011;3661;53.288;10.458;2024-03-22T06:50:20;611.13;;;592.25;;
7239;SDS011;3661;53.288;10.458;2024-03-22T06:52:54;577.70;;;559.97;;
7239;SDS011;3661;53.288;10.458;2024-03-22T06:55:25;590.88;;;572.78;;
7239;SDS011;3661;53.288;10.458;2024-03-22T06:57:58;518.33;;;502.63;;
7239;SDS011;3661;53.288;10.458;2024-03-22T07:00:30;641.33;;;621.50;;
7239;SDS011;3661;53.288;10.458;2024-03-22T07:03:04;580.80;;;562.97;;
7239;SDS011;3661;53.288;10.458;2024-03-22T07:05:36;616.33;;;597.47;;
7239;SDS011;3661;53.288;10.458;2024-03-22T07:08:08;593.53;;;575.33;;
7239;SDS011;3661;53.288;10.458;2024-03-22T07:10:39;579.88;;;562.22;;
7239;SDS011;3661;53.288;10.458;2024-03-22T07:13:13;602.28;;;584.03;;
7239;SDS011;3661;53.288;10.458;2024-03-22T07:15:44;605.53;;;586.83;;
7239;SDS011;3661;53.288;10.458;2024-03-22T07:18:17;583.25;;;565.28;;
7239;SDS011;3661;53.288;10.458;2024-03-22T07:20:50;586.47;;;568.63;;
7239;SDS011;3661;53.288;10.458;2024-03-22T07:23:24;602.95;;;584.20;;
7239;SDS011;3661;53.288;10.458;2024-03-22T07:25:55;549.13;;;532.35;;
7239;SDS011;3661;53.288;10.458;2024-03-22T07:28:29;651.83;;;631.17;;
7239;SDS011;3661;53.288;10.458;2024-03-22T07:31:00;599.28;;;580.72;;
7239;SDS011;3661;53.288;10.458;2024-03-22T07:33:33;616.33;;;597.10;;
7239;SDS011;3661;53.288;10.458;2024-03-22T07:36:04;548.65;;;531.92;;
7239;SDS011;3661;53.288;10.458;2024-03-22T07:38:37;580.65;;;562.80;;
7239;SDS011;3661;53.288;10.458;2024-03-22T07:41:08;612.80;;;593.70;;
7239;SDS011;3661;53.288;10.458;2024-03-22T07:43:41;574.53;;;556.67;;
7239;SDS011;3661;53.288;10.458;2024-03-22T07:46:13;564.83;;;547.50;;
7239;SDS011;3661;53.288;10.458;2024-03-22T07:48:45;606.63;;;587.60;;
7239;SDS011;3661;53.288;10.458;2024-03-22T07:51:16;661.03;;;640.22;;
7239;SDS011;3661;53.288;10.458;2024-03-22T07:53:48;670.72;;;649.47;;
7239;SDS011;3661;53.288;10.458;2024-03-22T07:56:19;635.25;;;615.20;;
7239;SDS011;3661;53.288;10.458;2024-03-22T07:58:53;644.73;;;624.50;;
7239;SDS011;3661;53.288;10.458;2024-03-22T08:01:24;616.72;;;597.03;;
7239;SDS011;3661;53.288;10.458;2024-03-22T08:03:56;674.72;;;653.13;;
7239;SDS011;3661;53.288;10.458;2024-03-22T08:06:27;641.30;;;621.03;;
7239;SDS011;3661;53.288;10.458;2024-03-22T08:08:59;681.50;;;659.92;;
7239;SDS011;3661;53.288;10.458;2024-03-22T08:11:30;680.22;;;658.58;;
7239;SDS011;3661;53.288;10.458;2024-03-22T08:14:04;679.92;;;657.65;;
7239;SDS011;3661;53.288;10.458;2024-03-22T08:16:35;620.88;;;601.00;;
7239;SDS011;3661;53.288;10.458;2024-03-22T08:19:07;689.30;;;667.15;;
7239;SDS011;3661;53.288;10.458;2024-03-22T08:21:38;659.63;;;638.55;;
7239;SDS011;3661;53.288;10.458;2024-03-22T08:24:11;644.30;;;623.75;;
7239;SDS011;3661;53.288;10.458;2024-03-22T08:26:42;658.15;;;637.28;;
7239;SDS011;3661;53.288;10.458;2024-03-22T08:29:18;669.92;;;648.30;;
7239;SDS011;3661;53.288;10.458;2024-03-22T08:31:49;614.90;;;595.50;;
7239;SDS011;3661;53.288;10.458;2024-03-22T08:34:21;643.63;;;623.25;;
7239;SDS011;3661;53.288;10.458;2024-03-22T08:36:53;627.50;;;607.70;;
7239;SDS011;3661;53.288;10.458;2024-03-22T08:39:25;691.67;;;669.58;;
7239;SDS011;3661;53.288;10.458;2024-03-22T08:41:56;671.83;;;650.30;;
7239;SDS011;3661;53.288;10.458;2024-03-22T08:44:30;689.03;;;666.60;;
7239;SDS011;3661;53.288;10.458;2024-03-22T08:47:01;704.55;;;681.75;;
7239;SDS011;3661;53.288;10.458;2024-03-22T08:49:33;687.15;;;664.55;;
7239;SDS011;3661;53.288;10.458;2024-03-22T08:52:06;608.42;;;589.28;;
7239;SDS011;3661;53.288;10.458;2024-03-22T08:54:38;593.88;;;574.95;;
7239;SDS011;3661;53.288;10.458;2024-03-22T08:57:11;639.67;;;619.38;;
7239;SDS011;3661;53.288;10.458;2024-03-22T08:59:45;643.13;;;622.38;;
7239;SDS011;3661;53.288;10.458;2024-03-22T09:02:16;672.20;;;650.28;;
7239;SDS011;3661;53.288;10.458;2024-03-22T09:04:49;679.65;;;657.38;;
7239;SDS011;3661;53.288;10.458;2024-03-22T09:07:20;686.97;;;664.60;;
7239;SDS011;3661;53.288;10.458;2024-03-22T09:09:54;635.77;;;615.60;;
7239;SDS011;3661;53.288;10.458;2024-03-22T09:12:25;695.80;;;673.03;;
7239;SDS011;3661;53.288;10.458;2024-03-22T09:14:59;685.67;;;663.15;;
7239;SDS011;3661;53.288;10.458;2024-03-22T09:17:32;751.50;;;726.92;;
7239;SDS011;3661;53.288;10.458;2024-03-22T09:20:04;728.50;;;704.92;;
7239;SDS011;3661;53.288;10.458;2024-03-22T09:22:37;719.27;;;695.60;;
7239;SDS011;3661;53.288;10.458;2024-03-22T09:25:10;726.92;;;703.20;;
7239;SDS011;3661;53.288;10.458;2024-03-22T09:27:43;673.72;;;652.33;;
7239;SDS011;3661;53.288;10.458;2024-03-22T09:33:12;707.40;;;684.25;;
7239;SDS011;3661;53.288;10.458;2024-03-22T09:35:57;712.90;;;689.70;;
7239;SDS011;3661;53.288;10.458;2024-03-22T09:38:34;733.28;;;709.67;;
7239;SDS011;3661;53.288;10.458;2024-03-22T09:41:06;708.25;;;685.15;;
7239;SDS011;3661;53.288;10.458;2024-03-22T09:43:38;769.70;;;744.42;;
7239;SDS011;3661;53.288;10.458;2024-03-22T09:46:15;674.20;;;652.53;;
7239;SDS011;3661;53.288;10.458;2024-03-22T09:48:48;754.50;;;729.90;;
7239;SDS011;3661;53.288;10.458;2024-03-22T09:51:21;712.95;;;689.35;;
7239;SDS011;3661;53.288;10.458;2024-03-22T09:53:52;681.90;;;660.03;;
7239;SDS011;3661;53.288;10.458;2024-03-22T09:56:25;660.65;;;639.70;;
7239;SDS011;3661;53.288;10.458;2024-03-22T09:58:58;669.80;;;648.70;;
7239;SDS011;3661;53.288;10.458;2024-03-22T10:01:31;628.97;;;609.53;;
7239;SDS011;3661;53.288;10.458;2024-03-22T10:04:04;626.23;;;606.77;;
7239;SDS011;3661;53.288;10.458;2024-03-22T10:06:36;649.42;;;629.05;;
7239;SDS011;3661;53.288;10.458;2024-03-22T10:09:07;669.65;;;648.53;;
7239;SDS011;3661;53.288;10.458;2024-03-22T10:11:39;654.53;;;634.10;;
7239;SDS011;3661;53.288;10.458;2024-03-22T10:14:11;674.63;;;653.33;;
7239;SDS011;3661;53.288;10.458;2024-03-22T10:16:45;685.95;;;664.33;;
7239;SDS011;3661;53.288;10.458;2024-03-22T10:19:16;682.10;;;660.55;;
7239;SDS011;3661;53.288;10.458;2024-03-22T10:21:48;649.53;;;629.17;;
7239;SDS011;3661;53.288;10.458;2024-03-22T10:24:31;644.03;;;623.85;;
7239;SDS011;3661;53.288;10.458;2024-03-22T10:27:04;670.07;;;648.80;;
7239;SDS011;3661;53.288;10.458;2024-03-22T10:29:36;711.90;;;689.50;;
7239;SDS011;3661;53.288;10.458;2024-03-22T10:32:09;608.95;;;590.17;;
7239;SDS011;3661;53.288;10.458;2024-03-22T10:34:40;688.60;;;667.22;;
7239;SDS011;3661;53.288;10.458;2024-03-22T10:37:15;646.95;;;626.90;;
7239;SDS011;3661;53.288;10.458;2024-03-22T10:39:47;636.00;;;616.28;;
7239;SDS011;3661;53.288;10.458;2024-03-22T10:42:23;617.17;;;598.17;;
7239;SDS011;3661;53.288;10.458;2024-03-22T10:44:54;612.17;;;593.22;;
7239;SDS011;3661;53.288;10.458;2024-03-22T10:47:29;640.35;;;620.53;;
7239;SDS011;3661;53.288;10.458;2024-03-22T10:50:03;631.05;;;611.65;;
7239;SDS011;3661;53.288;10.458;2024-03-22T10:52:38;653.38;;;633.17;;
7239;SDS011;3661;53.288;10.458;2024-03-22T10:55:10;632.03;;;612.15;;
7239;SDS011;3661;53.288;10.458;2024-03-22T10:57:46;639.90;;;619.95;;
7239;SDS011;3661;53.288;10.458;2024-03-22T11:00:17;663.08;;;641.97;;
7239;SDS011;3661;53.288;10.458;2024-03-22T11:03:07;648.30;;;628.00;;
7239;SDS011;3661;53.288;10.458;2024-03-22T11:05:44;647.08;;;626.65;;
7239;SDS011;3661;53.288;10.458;2024-03-22T11:08:22;628.97;;;609.53;;
7239;SDS011;3661;53.288;10.458;2024-03-22T11:10:54;672.97;;;652.10;;
7239;SDS011;3661;53.288;10.458;2024-03-22T11:13:28;643.08;;;623.13;;
7239;SDS011;3661;53.288;10.458;2024-03-22T11:15:59;667.27;;;646.30;;
7239;SDS011;3661;53.288;10.458;2024-03-22T11:18:33;674.17;;;653.08;;
7239;SDS011;3661;53.288;10.458;2024-03-22T11:21:05;627.03;;;607.72;;
7239;SDS011;3661;53.288;10.458;2024-03-22T11:23:39;636.72;;;617.13;;
7239;SDS011;3661;53.288;10.458;2024-03-22T11:26:10;646.00;;;626.05;;
7239;SDS011;3661;53.288;10.458;2024-03-22T11:28:42;623.33;;;604.28;;
7239;SDS011;3661;53.288;10.458;2024-03-22T11:31:13;659.97;;;639.60;;
7239;SDS011;3661;53.288;10.458;2024-03-22T11:33:47;652.35;;;632.30;;
7239;SDS011;3661;53.288;10.458;2024-03-22T11:36:29;662.67;;;641.92;;
7239;SDS011;3661;53.288;10.458;2024-03-22T11:39:04;633.13;;;613.75;;
7239;SDS011;3661;53.288;10.458;2024-03-22T11:41:35;607.60;;;589.05;;
7239;SDS011;3661;53.288;10.458;2024-03-22T11:44:07;697.60;;;676.00;;
7239;SDS011;3661;53.288;10.458;2024-03-22T11:46:38;625.85;;;606.75;;
7239;SDS011;3661;53.288;10.458;2024-03-22T11:49:13;691.33;;;670.08;;
7239;SDS011;3661;53.288;10.458;2024-03-22T11:51:44;687.90;;;667.10;;
7239;SDS011;3661;53.288;10.458;2024-03-22T11:54:18;647.13;;;627.40;;
7239;SDS011;3661;53.288;10.458;2024-03-22T11:56:50;652.10;;;632.22;;
7239;SDS011;3661;53.288;10.458;2024-03-22T11:59:23;670.78;;;650.38;;
7239;SDS011;3661;53.288;10.458;2024-03-22T12:01:54;706.67;;;685.13;;
7239;SDS011;3661;53.288;10.458;2024-03-22T12:04:28;693.63;;;672.63;;
7239;SDS011;3661;53.288;10.458;2024-03-22T12:06:59;677.17;;;656.75;;
7239;SDS011;3661;53.288;10.458;2024-03-22T12:09:34;666.33;;;646.20;;
7239;SDS011;3661;53.288;10.458;2024-03-22T12:12:06;718.95;;;696.65;;
7239;SDS011;3661;53.288;10.458;2024-03-22T12:14:40;631.05;;;612.20;;
7239;SDS011;3661;53.288;10.458;2024-03-22T12:17:11;608.77;;;590.77;;
7239;SDS011;3661;53.288;10.458;2024-03-22T12:19:45;616.33;;;598.35;;
7239;SDS011;3661;53.288;10.458;2024-03-22T12:22:17;714.78;;;693.00;;
7239;SDS011;3661;53.288;10.458;2024-03-22T12:24:49;665.08;;;645.42;;
7239;SDS011;3661;53.288;10.458;2024-03-22T12:27:20;657.53;;;638.17;;
7239;SDS011;3661;53.288;10.458;2024-03-22T12:29:56;638.38;;;619.70;;
7239;SDS011;3661;53.288;10.458;2024-03-22T12:32:27;745.90;;;723.28;;
7239;SDS011;3661;53.288;10.458;2024-03-22T12:35:00;723.75;;;702.08;;
7239;SDS011;3661;53.288;10.458;2024-03-22T12:37:32;664.20;;;644.67;;
7239;SDS011;3661;53.288;10.458;2024-03-22T12:40:04;637.92;;;619.35;;
7239;SDS011;3661;53.288;10.458;2024-03-22T12:42:38;668.15;;;648.50;;
7239;SDS011;3661;53.288;10.458;2024-03-22T12:45:10;696.53;;;675.93;;
7239;SDS011;3661;53.288;10.458;2024-03-22T12:47:41;639.07;;;620.73;;
7239;SDS011;3661;53.288;10.458;2024-03-22T12:50:15;666.77;;;647.13;;
7239;SDS011;3661;53.288;10.458;2024-03-22T12:52:47;565.67;;;549.63;;
7239;SDS011;3661;53.288;10.458;2024-03-22T12:55:21;588.92;;;572.47;;
7239;SDS011;3661;53.288;10.458;2024-03-22T12:57:52;672.17;;;652.73;;
7239;SDS011;3661;53.288;10.458;2024-03-22T13:00:24;651.43;;;632.83;;
7239;SDS011;3661;53.288;10.458;2024-03-22T13:02:55;638.60;;;620.38;;
7239;SDS011;3661;53.288;10.458;2024-03-22T13:05:31;654.43;;;635.47;;
7239;SDS011;3661;53.288;10.458;2024-03-22T13:08:02;663.42;;;644.33;;
7239;SDS011;3661;53.288;10.458;2024-03-22T13:10:34;689.67;;;669.53;;
7239;SDS011;3661;53.288;10.458;2024-03-22T13:13:05;647.97;;;629.40;;
7239;SDS011;3661;53.288;10.458;2024-03-22T13:15:37;668.22;;;649.15;;
7239;SDS011;3661;53.288;10.458;2024-03-22T13:18:10;642.05;;;623.92;;
7239;SDS011;3661;53.288;10.458;2024-03-22T13:20:43;631.50;;;613.50;;
7239;SDS011;3661;53.288;10.458;2024-03-22T13:23:17;687.83;;;667.97;;
7239;SDS011;3661;53.288;10.458;2024-03-22T13:25:49;722.08;;;700.90;;
7239;SDS011;3661;53.288;10.458;2024-03-22T13:28:22;696.05;;;675.88;;
7239;SDS011;3661;53.288;10.458;2024-03-22T13:30:58;641.72;;;623.67;;
7239;SDS011;3661;53.288;10.458;2024-03-22T13:33:30;679.95;;;660.40;;
7239;SDS011;3661;53.288;10.458;2024-03-22T13:36:04;691.70;;;671.70;;
7239;SDS011;3661;53.288;10.458;2024-03-22T13:38:35;692.28;;;672.25;;
7239;SDS011;3661;53.288;10.458;2024-03-22T13:41:08;657.65;;;638.95;;
7239;SDS011;3661;53.288;10.458;2024-03-22T13:43:39;742.72;;;720.90;;
7239;SDS011;3661;53.288;10.458;2024-03-22T13:46:14;643.78;;;625.60;;
7239;SDS011;3661;53.288;10.458;2024-03-22T13:48:47;734.42;;;712.78;;
7239;SDS011;3661;53.288;10.458;2024-03-22T13:51:21;669.38;;;650.17;;
7239;SDS011;3661;53.288;10.458;2024-03-22T13:53:52;658.92;;;640.20;;
7239;SDS011;3661;53.288;10.458;2024-03-22T13:56:25;668.83;;;649.63;;
7239;SDS011;3661;53.288;10.458;2024-03-22T13:58:56;662.58;;;643.78;;
7239;SDS011;3661;53.288;10.458;2024-03-22T14:01:28;655.65;;;637.10;;
7239;SDS011;3661;53.288;10.458;2024-03-22T14:04:00;673.58;;;654.15;;
7239;SDS011;3661;53.288;10.458;2024-03-22T14:06:34;608.60;;;591.47;;
7239;SDS011;3661;53.288;10.458;2024-03-22T14:09:06;705.70;;;685.33;;
7239;SDS011;3661;53.288;10.458;2024-03-22T14:11:40;683.10;;;663.30;;
7239;SDS011;3661;53.288;10.458;2024-03-22T14:14:13;651.20;;;632.63;;
7239;SDS011;3661;53.288;10.458;2024-03-22T14:16:45;665.20;;;646.17;;
7239;SDS011;3661;53.288;10.458;2024-03-22T14:19:16;665.88;;;646.85;;
7239;SDS011;3661;53.288;10.458;2024-03-22T14:21:50;657.57;;;638.80;;
7239;SDS011;3661;53.288;10.458;2024-03-22T14:24:21;654.10;;;635.45;;
7239;SDS011;3661;53.288;10.458;2024-03-22T14:26:53;634.85;;;617.03;;
7239;SDS011;3661;53.288;10.458;2024-03-22T14:29:24;667.03;;;648.03;;
7239;SDS011;3661;53.288;10.458;2024-03-22T14:31:56;690.15;;;670.42;;
7239;SDS011;3661;53.288;10.458;2024-03-22T14:34:27;687.25;;;667.45;;
7239;SDS011;3661;53.288;10.458;2024-03-22T14:37:01;681.45;;;662.13;;
7239;SDS011;3661;53.288;10.458;2024-03-22T14:39:34;719.72;;;698.67;;
7239;SDS011;3661;53.288;10.458;2024-03-22T14:42:06;701.88;;;681.55;;